^^
Your Local Weather - Clay, NY Station Historical Data
Daily Summary for January 29, 2018 Units:  Metric    English   Both
« Previous Day
Next Day »
Daily Weekly Monthly Yearly Custom
  High: Low: Average:
Temperature: 1.5 °C -4.6 °C -1.9 °C
Dew Point: -2.2 °C -6.6 °C -4.6 °C
Humidity: 91% 66% 83%
Wind Speed: 6.4km/h 0km/h 0.6km/h
Wind Gust: 12.9km/h - -
Wind- - West
Pressure: 1026 hPa 1016.5 hPa -
Precipitation: 0 mm    
Historical Graphs
 
 
Tabular Data for January 29, 2018
Time Temperature Dew Point Pressure Wind Wind Speed Wind Gust Humidity Rainfall Rate (Hourly) solar
00:04 -2.3 °C -3.9 °C 1025.6 hPa Calm     89% 0 mm 0 W/m2
00:10 -2.4 °C -3.9 °C 1026 hPa Calm     89% 0 mm 0 W/m2
00:16 -2.4 °C -3.9 °C 1026 hPa Calm     89% 0 mm 0 W/m2
00:22 -2.4 °C -3.9 °C 1025.6 hPa Calm     89% 0 mm 0 W/m2
00:28 -2.4 °C -4 °C 1025.6 hPa Calm     89% 0 mm 0 W/m2
00:34 -2.4 °C -3.9 °C 1025.6 hPa Calm     89% 0 mm 0 W/m2
00:40 -2.3 °C -3.9 °C 1025.3 hPa Calm     89% 0 mm 0 W/m2
00:46 -2.2 °C -3.8 °C 1025.3 hPa Calm     89% 0 mm 0 W/m2
00:52 -2.1 °C -3.6 °C 1025.3 hPa Calm     90% 0 mm 0 W/m2
00:58 -2.1 °C -3.5 °C 1025.3 hPa Calm     90% 0 mm 0 W/m2
01:04 -2.1 °C -3.5 °C 1025.3 hPa Calm     90% 0 mm 0 W/m2
01:10 -2.1 °C -3.6 °C 1025.3 hPa Calm     90% 0 mm 0 W/m2
01:16 -2.2 °C -3.6 °C 1025.3 hPa Calm     90% 0 mm 0 W/m2
01:22 -2.2 °C -3.6 °C 1025.3 hPa Calm     90% 0 mm 0 W/m2
01:28 -2.3 °C -3.8 °C 1025.3 hPa Calm     89% 0 mm 0 W/m2
01:34 -2.3 °C -3.9 °C 1025.3 hPa Calm     89% 0 mm 0 W/m2
01:40 -2.4 °C -3.8 °C 1025.3 hPa Calm     90% 0 mm 0 W/m2
01:46 -2.5 °C -3.9 °C 1025.3 hPa Calm     90% 0 mm 0 W/m2
01:52 -2.6 °C -4.2 °C 1025.3 hPa Calm     89% 0 mm 0 W/m2
01:58 -2.7 °C -4.1 °C 1025.3 hPa Calm     90% 0 mm 0 W/m2
02:04 -2.8 °C -4.4 °C 1025.6 hPa Calm     89% 0 mm 0 W/m2
02:10 -2.9 °C -4.5 °C 1025.6 hPa Calm     89% 0 mm 0 W/m2
02:16 -3 °C -4.4 °C 1025.6 hPa Calm     90% 0 mm 0 W/m2
02:22 -3.1 °C -4.5 °C 1025.6 hPa Calm     90% 0 mm 0 W/m2
02:28 -3.2 °C -4.6 °C 1025.6 hPa Calm     90% 0 mm 0 W/m2
02:34 -3.2 °C -4.6 °C 1025.6 hPa Calm     90% 0 mm 0 W/m2
02:40 -3.2 °C -4.6 °C 1025.6 hPa Calm     90% 0 mm 0 W/m2
02:46 -3.2 °C -4.6 °C 1025.6 hPa Calm     90% 0 mm 0 W/m2
02:52 -3.1 °C -4.5 °C 1025.6 hPa Calm     90% 0 mm 0 W/m2
02:58 -3.1 °C -4.4 °C 1025.6 hPa Calm     90% 0 mm 0 W/m2
03:04 -3.1 °C -4.4 °C 1025.6 hPa Calm     90% 0 mm 0 W/m2
03:10 -3 °C -4.4 °C 1025.6 hPa Calm     90% 0 mm 0 W/m2
03:16 -3 °C -4.4 °C 1025.3 hPa Calm     90% 0 mm 0 W/m2
03:22 -2.9 °C -4.3 °C 1025.3 hPa Calm     90% 0 mm 0 W/m2
03:28 -2.9 °C -4.3 °C 1024.9 hPa Calm     90% 0 mm 0 W/m2
03:34 -3 °C -4.4 °C 1025.3 hPa Calm     90% 0 mm 0 W/m2
03:40 -3 °C -4.4 °C 1024.9 hPa Calm     90% 0 mm 0 W/m2
03:46 -3 °C -4.4 °C 1024.9 hPa Calm     90% 0 mm 0 W/m2
03:52 -3.1 °C -4.4 °C 1024.9 hPa Calm     90% 0 mm 0 W/m2
03:58 -3.1 °C -4.5 °C 1024.9 hPa Calm     90% 0 mm 0 W/m2
04:04 -3.2 °C -4.6 °C 1024.9 hPa Calm     90% 0 mm 0 W/m2
04:10 -3.2 °C -4.6 °C 1024.9 hPa Calm   1.6 km/h 90% 0 mm 0 W/m2
04:16 -3.1 °C -4.5 °C 1024.9 hPa Calm   1.6 km/h 90% 0 mm 0 W/m2
04:22 -3.2 °C -4.6 °C 1024.9 hPa Calm     90% 0 mm 0 W/m2
04:28 -3.2 °C -4.6 °C 1024.9 hPa Calm     90% 0 mm 0 W/m2
04:34 -3.3 °C -4.7 °C 1024.9 hPa Calm     90% 0 mm 0 W/m2
04:40 -3.3 °C -4.7 °C 1024.9 hPa Calm     90% 0 mm 0 W/m2
04:46 -3.4 °C -4.8 °C 1024.9 hPa Calm     90% 0 mm 0 W/m2
04:52 -3.5 °C -4.9 °C 1024.9 hPa Calm     90% 0 mm 0 W/m2
04:58 -3.7 °C -5.1 °C 1024.9 hPa Calm     90% 0 mm 0 W/m2
05:04 -3.8 °C -5.2 °C 1024.9 hPa Calm     90% 0 mm 0 W/m2
05:10 -3.9 °C -5.3 °C 1024.9 hPa Calm   1.6 km/h 90% 0 mm 0 W/m2
05:16 -4.1 °C -5.4 °C 1024.9 hPa Calm   1.6 km/h 90% 0 mm 0 W/m2
05:22 -4.1 °C -5.5 °C 1024.9 hPa Calm     90% 0 mm 0 W/m2
05:28 -4.2 °C -5.6 °C 1024.9 hPa Calm     90% 0 mm 0 W/m2
05:34 -4.3 °C -5.7 °C 1024.9 hPa Calm     90% 0 mm 0 W/m2
05:40 -4.4 °C -5.8 °C 1024.9 hPa Calm     90% 0 mm 0 W/m2
05:46 -4.4 °C -5.8 °C 1024.9 hPa Calm     90% 0 mm 0 W/m2
05:52 -4.4 °C -5.8 °C 1024.9 hPa Calm     90% 0 mm 0 W/m2
05:58 -4.4 °C -5.8 °C 1024.9 hPa Calm     90% 0 mm 0 W/m2
06:04 -4.4 °C -5.8 °C 1025.3 hPa Calm     90% 0 mm 0 W/m2
06:10 -4.4 °C -5.6 °C 1025.3 hPa Calm     91% 0 mm 0 W/m2
06:16 -4.3 °C -5.6 °C 1025.3 hPa Calm     91% 0 mm 0 W/m2
06:22 -4.3 °C -5.5 °C 1025.3 hPa Calm     91% 0 mm 0 W/m2
06:28 -4.2 °C -5.4 °C 1025.3 hPa Calm     91% 0 mm 0 W/m2
06:34 -4.2 °C -5.4 °C 1025.3 hPa Calm     91% 0 mm 0 W/m2
06:40 -4.1 °C -5.3 °C 1025.6 hPa Calm     91% 0 mm 0 W/m2
06:46 -3.9 °C -5.2 °C 1025.6 hPa Calm     91% 0 mm 0 W/m2
06:52 -3.9 °C -5.2 °C 1025.6 hPa Calm     91% 0 mm 0 W/m2
06:58 -3.9 °C -5.2 °C 1025.6 hPa Calm     91% 0 mm 0 W/m2
07:04 -3.9 °C -5.2 °C 1025.6 hPa Calm     91% 0 mm 0 W/m2
07:10 -3.9 °C -5.2 °C 1025.6 hPa Calm     91% 0 mm 0 W/m2
07:16 -4.1 °C -5.3 °C 1025.6 hPa Calm     91% 0 mm 0 W/m2
07:22 -4.2 °C -5.4 °C 1025.6 hPa Calm     91% 0 mm 0 W/m2
07:28 -4.3 °C -5.6 °C 1025.6 hPa Calm     91% 0 mm 5 W/m2
07:34 -4.3 °C -5.6 °C 1025.6 hPa Calm     91% 0 mm 11 W/m2
07:40 -4.4 °C -5.7 °C 1025.6 hPa Calm     91% 0 mm 18 W/m2
07:46 -4.6 °C -5.8 °C 1025.6 hPa Calm     91% 0 mm 25 W/m2
07:52 -4.6 °C -5.8 °C 1025.6 hPa Calm     91% 0 mm 35 W/m2
07:58 -4.6 °C -5.8 °C 1025.6 hPa Calm     91% 0 mm 40 W/m2
08:04 -4.6 °C -5.8 °C 1025.6 hPa Calm     91% 0 mm 46 W/m2
08:10 -4.4 °C -5.7 °C 1025.6 hPa Calm     91% 0 mm 44 W/m2
08:16 -4.3 °C -5.6 °C 1025.6 hPa Calm     91% 0 mm 53 W/m2
08:22 -4.2 °C -5.4 °C 1025.6 hPa Calm     91% 0 mm 65 W/m2
08:28 -3.9 °C -5.2 °C 1025.6 hPa Calm     91% 0 mm 102 W/m2
08:34 -3.7 °C -5 °C 1025.6 hPa Calm     91% 0 mm 135 W/m2
08:40 -3.4 °C -4.7 °C 1025.6 hPa Calm     91% 0 mm 120 W/m2
08:46 -3.2 °C -4.4 °C 1025.6 hPa Calm     91% 0 mm 116 W/m2
08:52 -2.9 °C -4.2 °C 1025.6 hPa Calm     91% 0 mm 162 W/m2
08:58 -2.8 °C -4.1 °C 1025.6 hPa Calm     91% 0 mm 193 W/m2
09:04 -2.4 °C -3.7 °C 1025.6 hPa Calm     91% 0 mm 251 W/m2
09:10 -1.8 °C -3.1 °C 1025.6 hPa Calm     91% 0 mm 304 W/m2
09:16 -1.4 °C -2.9 °C 1025.3 hPa Calm     90% 0 mm 304 W/m2
09:22 -1.1 °C -3.3 °C 1025.3 hPa Calm     85% 0 mm 283 W/m2
09:28 -0.7 °C -3.3 °C 1025.3 hPa Calm     83% 0 mm 301 W/m2
09:34 -0.3 °C -3.2 °C 1025.3 hPa Calm     81% 0 mm 229 W/m2
09:40 -0.7 °C -3.3 °C 1025.3 hPa Calm     82% 0 mm 199 W/m2
09:46 -0.9 °C -3.7 °C 1024.9 hPa Calm     81% 0 mm 151 W/m2
09:52 -1.3 °C -4.1 °C 1024.9 hPa NNW 1.6 km/h 1.6 km/h 81% 0 mm 156 W/m2
09:58 -1.2 °C -3.9 °C 1024.9 hPa NNW 1.6 km/h 1.6 km/h 82% 0 mm 172 W/m2
10:04 -1.2 °C -3.8 °C 1024.9 hPa Calm   1.6 km/h 82% 0 mm 151 W/m2
10:10 -1.2 °C -3.9 °C 1024.9 hPa Calm     82% 0 mm 172 W/m2
10:16 -1.2 °C -3.9 °C 1024.9 hPa Calm     82% 0 mm 153 W/m2
10:22 -1.1 °C -3.6 °C 1024.9 hPa Calm     83% 0 mm 176 W/m2
10:28 -0.9 °C -3.4 °C 1024.9 hPa NNW 1.6 km/h 4.8 km/h 83% 0 mm 216 W/m2
10:34 -0.8 °C -3.4 °C 1024.9 hPa NNW 1.6 km/h 1.6 km/h 82% 0 mm 213 W/m2
10:40 -0.7 °C -3.4 °C 1024.6 hPa Calm   1.6 km/h 82% 0 mm 246 W/m2
10:46 -0.5 °C -3.1 °C 1024.6 hPa Calm   3.2 km/h 83% 0 mm 248 W/m2
10:52 -0.4 °C -3.2 °C 1024.6 hPa NNW 1.6 km/h 1.6 km/h 82% 0 mm 269 W/m2
10:58 -0.3 °C -3 °C 1024.6 hPa NNW 1.6 km/h 1.6 km/h 82% 0 mm 290 W/m2
11:04 -0.3 °C -3.2 °C 1024.6 hPa NNW 1.6 km/h 1.6 km/h 81% 0 mm 267 W/m2
11:10 0 °C -2.9 °C 1024.6 hPa Calm     81% 0 mm 251 W/m2
11:16 -0.2 °C -3.2 °C 1024.3 hPa Calm   3.2 km/h 80% 0 mm 227 W/m2
11:22 -0.2 °C -3.1 °C 1024.3 hPa Calm     81% 0 mm 225 W/m2
11:28 -0.1 °C -3 °C 1024.3 hPa Calm     81% 0 mm 225 W/m2
11:34 0.1 °C -2.8 °C 1023.9 hPa Calm     81% 0 mm 221 W/m2
11:40 0.3 °C -2.6 °C 1023.9 hPa Calm     81% 0 mm 213 W/m2
11:46 0.3 °C -2.7 °C 1023.9 hPa Calm   1.6 km/h 80% 0 mm 216 W/m2
11:52 0.4 °C -2.8 °C 1023.6 hPa Calm     79% 0 mm 216 W/m2
11:58 0.5 °C -2.7 °C 1023.6 hPa Calm     79% 0 mm 213 W/m2
12:04 0.6 °C -2.6 °C 1023.6 hPa Calm     79% 0 mm 213 W/m2
12:10 0.6 °C -2.8 °C 1023.6 hPa Calm     78% 0 mm 214 W/m2
12:16 0.6 °C -2.8 °C 1023.2 hPa NNW 1.6 km/h 4.8 km/h 78% 0 mm 216 W/m2
12:22 0.6 °C -2.8 °C 1023.2 hPa NNW 1.6 km/h 1.6 km/h 78% 0 mm 211 W/m2
12:28 0.7 °C -2.5 °C 1022.9 hPa NNW 1.6 km/h 1.6 km/h 79% 0 mm 204 W/m2
12:34 0.8 °C -2.6 °C 1022.9 hPa Calm   1.6 km/h 78% 0 mm 202 W/m2
12:40 0.9 °C -2.6 °C 1022.9 hPa NNW 1.6 km/h 1.6 km/h 77% 0 mm 211 W/m2
12:46 1.1 °C -2.6 °C 1022.6 hPa NNW 1.6 km/h 3.2 km/h 77% 0 mm 230 W/m2
12:52 1.2 °C -2.4 °C 1022.6 hPa NNW 1.6 km/h 4.8 km/h 77% 0 mm 264 W/m2
12:58 1.4 °C -2.2 °C 1022.6 hPa NNW 1.6 km/h 4.8 km/h 77% 0 mm 246 W/m2
13:04 1.5 °C -2.3 °C 1022.6 hPa NNW 1.6 km/h 3.2 km/h 76% 0 mm 230 W/m2
13:10 1.4 °C -2.4 °C 1022.6 hPa NNW 1.6 km/h 3.2 km/h 76% 0 mm 223 W/m2
13:16 1.3 °C -2.3 °C 1022.2 hPa NNW 3.2 km/h 4.8 km/h 77% 0 mm 223 W/m2
13:22 1.1 °C -2.7 °C 1022.2 hPa NNW 3.2 km/h 4.8 km/h 76% 0 mm 218 W/m2
13:28 1.2 °C -2.7 °C 1021.9 hPa NNW 1.6 km/h 4.8 km/h 75% 0 mm 214 W/m2
13:34 1.2 °C -2.7 °C 1021.9 hPa NNW 1.6 km/h 3.2 km/h 75% 0 mm 207 W/m2
13:40 1.2 °C -2.8 °C 1021.9 hPa NNE 3.2 km/h 3.2 km/h 75% 0 mm 206 W/m2
13:46 1.2 °C -2.8 °C 1021.9 hPa East 3.2 km/h 4.8 km/h 75% 0 mm 241 W/m2
13:52 1.2 °C -2.8 °C 1021.6 hPa NNE 3.2 km/h 4.8 km/h 75% 0 mm 237 W/m2
13:58 1.3 °C -2.8 °C 1021.6 hPa NNW 3.2 km/h 6.4 km/h 74% 0 mm 204 W/m2
14:04 1.3 °C -2.8 °C 1021.6 hPa NE 3.2 km/h 4.8 km/h 74% 0 mm 192 W/m2
14:10 1.3 °C -3.1 °C 1021.6 hPa NE 3.2 km/h 3.2 km/h 73% 0 mm 179 W/m2
14:16 1.3 °C -3.1 °C 1021.6 hPa NE 3.2 km/h 6.4 km/h 73% 0 mm 165 W/m2
14:22 1.2 °C -3.2 °C 1021.2 hPa NE 3.2 km/h 3.2 km/h 73% 0 mm 171 W/m2
14:28 1.3 °C -3.2 °C 1021.2 hPa NNW 3.2 km/h 4.8 km/h 72% 0 mm 169 W/m2
14:34 1.2 °C -3.7 °C 1020.9 hPa NNW 3.2 km/h 4.8 km/h 70% 0 mm 179 W/m2
14:40 1.3 °C -3.3 °C 1020.9 hPa NNW 1.6 km/h 4.8 km/h 71% 0 mm 172 W/m2
14:46 1.3 °C -3.3 °C 1020.9 hPa North 1.6 km/h 4.8 km/h 71% 0 mm 181 W/m2
14:52 1.3 °C -3.6 °C 1020.9 hPa ENE 3.2 km/h 3.2 km/h 70% 0 mm 190 W/m2
14:58 1.3 °C -3.6 °C 1020.9 hPa ENE 1.6 km/h 4.8 km/h 70% 0 mm 218 W/m2
15:04 1.4 °C -3.9 °C 1020.9 hPa NE 1.6 km/h 3.2 km/h 68% 0 mm 202 W/m2
15:10 1.4 °C -4.2 °C 1020.9 hPa North 1.6 km/h 3.2 km/h 66% 0 mm 223 W/m2
15:16 1.4 °C -4.3 °C 1020.9 hPa NE 1.6 km/h 4.8 km/h 66% 0 mm 195 W/m2
15:22 1.5 °C -3.8 °C 1020.9 hPa NNW 3.2 km/h 4.8 km/h 68% 0 mm 227 W/m2
15:28 1.3 °C -3.7 °C 1020.9 hPa NNW 4.8 km/h 8 km/h 69% 0 mm 193 W/m2
15:34 1.3 °C -3.8 °C 1020.9 hPa NNW 4.8 km/h 8 km/h 69% 0 mm 153 W/m2
15:40 1.2 °C -3.7 °C 1020.9 hPa NW 3.2 km/h 6.4 km/h 70% 0 mm 125 W/m2
15:46 1 °C -3.9 °C 1020.9 hPa North 4.8 km/h 6.4 km/h 70% 0 mm 146 W/m2
15:52 0.9 °C -3.9 °C 1020.5 hPa NNW 4.8 km/h 6.4 km/h 70% 0 mm 116 W/m2
15:58 0.8 °C -4.1 °C 1020.5 hPa NNW 6.4 km/h 12.9 km/h 70% 0 mm 77 W/m2
16:04 0.7 °C -4.2 °C 1020.5 hPa NNW 6.4 km/h 6.4 km/h 70% 0 mm 70 W/m2
16:10 0.5 °C -4.3 °C 1020.5 hPa NW 4.8 km/h 8 km/h 70% 0 mm 56 W/m2
16:16 0.3 °C -4.5 °C 1020.5 hPa NNW 4.8 km/h 8 km/h 70% 0 mm 56 W/m2
16:22 0.2 °C -4.5 °C 1020.5 hPa NNW 4.8 km/h 6.4 km/h 71% 0 mm 46 W/m2
16:28 -0.1 °C -4.7 °C 1020.5 hPa NNW 4.8 km/h 6.4 km/h 71% 0 mm 39 W/m2
16:34 -0.2 °C -4.6 °C 1020.2 hPa NW 4.8 km/h 8 km/h 72% 0 mm 35 W/m2
16:40 -0.3 °C -4.8 °C 1020.2 hPa NNW 4.8 km/h 4.8 km/h 72% 0 mm 32 W/m2
16:46 -0.4 °C -4.7 °C 1020.2 hPa NNW 3.2 km/h 6.4 km/h 73% 0 mm 28 W/m2
16:52 -0.6 °C -4.8 °C 1020.2 hPa NNW 3.2 km/h 4.8 km/h 73% 0 mm 21 W/m2
16:58 -0.8 °C -4.8 °C 1019.9 hPa NW 1.6 km/h 6.4 km/h 74% 0 mm 16 W/m2
17:04 -0.9 °C -4.9 °C 1019.9 hPa NNW 1.6 km/h 3.2 km/h 74% 0 mm 11 W/m2
17:10 -1 °C -5.1 °C 1019.9 hPa NNW 1.6 km/h 1.6 km/h 74% 0 mm 5 W/m2
17:16 -1.1 °C -5.1 °C 1019.9 hPa Calm   1.6 km/h 74% 0 mm 0 W/m2
17:22 -1.2 °C -5.1 °C 1019.9 hPa Calm     75% 0 mm 0 W/m2
17:28 -1.3 °C -5.2 °C 1019.9 hPa Calm     75% 0 mm 0 W/m2
17:34 -1.4 °C -5.2 °C 1019.9 hPa Calm     75% 0 mm 0 W/m2
17:40 -1.6 °C -5.2 °C 1019.9 hPa Calm   1.6 km/h 76% 0 mm 0 W/m2
17:46 -1.7 °C -5.3 °C 1019.9 hPa Calm   1.6 km/h 76% 0 mm 0 W/m2
17:52 -1.8 °C -5.4 °C 1019.9 hPa Calm     76% 0 mm 0 W/m2
17:58 -1.9 °C -5.4 °C 1019.9 hPa Calm     77% 0 mm 0 W/m2
18:04 -1.9 °C -5.4 °C 1019.9 hPa Calm     77% 0 mm 0 W/m2
18:10 -2.1 °C -5.6 °C 1019.9 hPa Calm     77% 0 mm 0 W/m2
18:16 -2.1 °C -5.6 °C 1019.9 hPa Calm     77% 0 mm 0 W/m2
18:22 -2.2 °C -5.5 °C 1019.9 hPa Calm     78% 0 mm 0 W/m2
18:28 -2.2 °C -5.5 °C 1019.9 hPa Calm     78% 0 mm 0 W/m2
18:34 -2.2 °C -5.5 °C 1019.9 hPa Calm     78% 0 mm 0 W/m2
18:40 -2.2 °C -5.5 °C 1019.9 hPa Calm     78% 0 mm 0 W/m2
18:46 -2.2 °C -5.5 °C 1019.9 hPa Calm     78% 0 mm 0 W/m2
18:52 -2.2 °C -5.6 °C 1019.9 hPa Calm     78% 0 mm 0 W/m2
18:58 -2.2 °C -5.6 °C 1019.9 hPa Calm     78% 0 mm 0 W/m2
19:04 -2.3 °C -5.6 °C 1019.9 hPa Calm   1.6 km/h 78% 0 mm 0 W/m2
19:10 -2.3 °C -5.6 °C 1019.9 hPa NNW 1.6 km/h 1.6 km/h 78% 0 mm 0 W/m2
19:16 -2.2 °C -5.6 °C 1019.9 hPa NNW 1.6 km/h 1.6 km/h 78% 0 mm 0 W/m2
19:22 -2.3 °C -5.6 °C 1019.9 hPa Calm     78% 0 mm 0 W/m2
19:28 -2.3 °C -5.7 °C 1019.9 hPa Calm     78% 0 mm 0 W/m2
19:34 -2.4 °C -5.7 °C 1019.9 hPa Calm     78% 0 mm 0 W/m2
19:40 -2.4 °C -5.8 °C 1019.5 hPa Calm     78% 0 mm 0 W/m2
19:46 -2.5 °C -5.8 °C 1019.5 hPa Calm     78% 0 mm 0 W/m2
19:52 -2.6 °C -5.9 °C 1019.5 hPa Calm     78% 0 mm 0 W/m2
19:58 -2.6 °C -5.9 °C 1019.5 hPa Calm     78% 0 mm 0 W/m2
20:04 -2.7 °C -6 °C 1019.5 hPa Calm     78% 0 mm 0 W/m2
20:10 -2.7 °C -6 °C 1019.2 hPa Calm     78% 0 mm 0 W/m2
20:16 -2.8 °C -5.9 °C 1019.2 hPa Calm     79% 0 mm 0 W/m2
20:22 -2.9 °C -6 °C 1019.2 hPa Calm     79% 0 mm 0 W/m2
20:28 -2.9 °C -6.1 °C 1019.2 hPa Calm     79% 0 mm 0 W/m2
20:34 -3.1 °C -6 °C 1019.2 hPa Calm     80% 0 mm 0 W/m2
20:40 -3.1 °C -6.1 °C 1018.8 hPa Calm     80% 0 mm 0 W/m2
20:46 -3.2 °C -5.9 °C 1018.8 hPa Calm     81% 0 mm 0 W/m2
20:52 -3.3 °C -6.1 °C 1018.8 hPa Calm     81% 0 mm 0 W/m2
20:58 -3.4 °C -6.2 °C 1018.8 hPa Calm     81% 0 mm 0 W/m2
21:04 -3.4 °C -6.2 °C 1018.5 hPa Calm     81% 0 mm 0 W/m2
21:10 -3.6 °C -6.2 °C 1018.5 hPa Calm     82% 0 mm 0 W/m2
21:16 -3.6 °C -6.2 °C 1018.5 hPa Calm     82% 0 mm 0 W/m2
21:22 -3.6 °C -6.2 °C 1018.5 hPa Calm     82% 0 mm 0 W/m2
21:28 -3.5 °C -5.9 °C 1018.5 hPa Calm     83% 0 mm 0 W/m2
21:34 -3.4 °C -5.9 °C 1018.2 hPa Calm     83% 0 mm 0 W/m2
21:40 -3.4 °C -5.9 °C 1018.2 hPa Calm     83% 0 mm 0 W/m2
21:46 -3.4 °C -5.9 °C 1018.2 hPa Calm     83% 0 mm 0 W/m2
21:52 -3.4 °C -5.9 °C 1018.2 hPa Calm     83% 0 mm 0 W/m2
21:58 -3.4 °C -5.9 °C 1017.8 hPa Calm     83% 0 mm 0 W/m2
22:04 -3.4 °C -5.7 °C 1017.8 hPa Calm     84% 0 mm 0 W/m2
22:10 -3.4 °C -5.7 °C 1017.8 hPa Calm     84% 0 mm 0 W/m2
22:16 -3.4 °C -5.7 °C 1017.8 hPa Calm     84% 0 mm 0 W/m2
22:22 -3.3 °C -5.7 °C 1017.8 hPa Calm     84% 0 mm 0 W/m2
22:28 -3.3 °C -5.7 °C 1017.8 hPa Calm     84% 0 mm 0 W/m2
22:34 -3.3 °C -5.7 °C 1017.8 hPa Calm     84% 0 mm 0 W/m2
22:40 -3.3 °C -5.7 °C 1017.5 hPa Calm     84% 0 mm 0 W/m2
22:46 -3.3 °C -5.6 °C 1017.5 hPa Calm     84% 0 mm 0 W/m2
22:52 -3.3 °C -5.8 °C 1017.5 hPa Calm     83% 0 mm 0 W/m2
22:58 -3.3 °C -5.8 °C 1017.2 hPa Calm   1.6 km/h 83% 0 mm 0 W/m2
23:04 -3.4 °C -5.9 °C 1017.2 hPa Calm   1.6 km/h 83% 0 mm 0 W/m2
23:10 -3.4 °C -6 °C 1017.2 hPa Calm     82% 0 mm 0 W/m2
23:16 -3.4 °C -6.1 °C 1017.2 hPa Calm     82% 0 mm 0 W/m2
23:22 -3.6 °C -6.2 °C 1017.2 hPa Calm     82% 0 mm 0 W/m2
23:28 -3.6 °C -6.2 °C 1016.8 hPa Calm     82% 0 mm 0 W/m2
23:34 -3.7 °C -6.3 °C 1016.8 hPa Calm     82% 0 mm 0 W/m2
23:40 -3.8 °C -6.4 °C 1016.8 hPa Calm     82% 0 mm 0 W/m2
23:46 -3.9 °C -6.5 °C 1016.8 hPa Calm     82% 0 mm 0 W/m2
23:52 -4 °C -6.4 °C 1016.8 hPa Calm     83% 0 mm 0 W/m2
23:58 -4.1 °C -6.6 °C 1016.5 hPa Calm     83% 0 mm 0 W/m2
Country Meadow, Clay, NY, USA
Compliments of Weather Underground - 2 mb